AirNav   Air Wisconsin Up To $57,000 Bonus
 
 1222 users online  

P19 Stellar Airpark
Chandler, Arizona, USA

GOING TO CHANDLER?


FAA INFORMATION EFFECTIVE 16 JUNE 2022

Location

FAA Identifier: P19
Lat/Long: 33-17-55.5760N 111-54-56.8350W
33-17.926267N 111-54.947250W
33.2987711,-111.9157875
(estimated)
Elevation: 1178.5 ft. / 359.2 m (surveyed)
Variation: 13E (1980)
From city: 3 miles W of CHANDLER, AZ
Time zone: UTC -7 (year round; does not observe DST)
Zip code: 85226

Airport Operations

Airport use: Open to the public
Control tower: no
ARTCC: ALBUQUERQUE CENTER
FSS: PRESCOTT FLIGHT SERVICE STATION
NOTAMs facility: PRC (NOTAM-D service available)
Attendance: UNATNDD
Pattern altitude: 2001.5 ft. MSL
Wind indicator: yes
Segmented circle: no
Lights: DUSK-DAWN. ACTVT ACTVT REIL RWY 17 & 35; MIRL RWY 17/35 - CTAF.
Beacon: white-green (lighted land airport)
Operates sunset to sunrise.

Airport Communications

CTAF/UNICOM: 122.975
PHOENIX APPROACH: 123.7
PHOENIX DEPARTURE: 123.7
WX AWOS-3PT at CHD (6 nm E): PHONE 480-814-9952
WX ASOS at PHX (9 nm NW): PHONE 602-231-8557
WX AWOS-3 at IWA (13 nm E): 133.5 (480-988-9428)
WX ASOS at FFZ (14 nm NE): PHONE 480-641-4111
WX AWOS-3 at A39 (18 nm S): 126.900 (520-568-7704)
WX ASOS at SDL (19 nm N): PHONE 480-483-3049

Airport Services

Fuel available: 100LL
100LL:FOR FUEL INFO CTC FBO AT 602-793-6383.
Airframe service: MINOR
Powerplant service: MINOR
Bulk oxygen: NONE

Runway Information

Runway 17/35

Dimensions: 4417 x 80 ft. / 1346 x 24 m
Surface: asphalt, in good condition
Runway edge lights: medium intensity
RUNWAY 17  RUNWAY 35
Latitude: 33-18.290390N33-17.562150N
Longitude: 111-54.946942W111-54.947567W
Elevation: 1178.0 ft.1173.7 ft.
Traffic pattern: leftleft
Runway heading: 167 magnetic, 180 true347 magnetic, 000 true
Displaced threshold: 366 ft.349 ft.
Declared distances: LDA:4051LDA:4068
Markings: nonprecision, in good conditionnonprecision, in good condition
Visual slope indicator: 2-light PAPI on left (3.25 degrees glide path)2-light PAPI on right (3.25 degrees glide path)
Runway end identifier lights: yesyes
Touchdown point: yes, no lightsyes, no lights
Obstructions: 15 ft. road, 201 ft. from runway
RWY. 17 +8 FT. FENCE 130 FT. FROM END OF RUNWAY, +15 FT. ROADWAY 164 FT. FROM END OF RUNWAY ACROSS THRESHOLD.
12 ft. tree, 210 ft. from runway, 110 ft. left of centerline
RWY 35 +6 FT. FENCE 80 FT. FROM END OF RUNWAY ACROSS THRESHOLD, +15 FT. ROADWAY 85 FT. FROM END OF RUNWAY ACROSS THRESHOLD.

Airport Ownership and Management from official FAA records

Ownership: Privately-owned
Owner: STELLAR RUNWAY UTILIZERS ASSN, INC.
11 NORTH STELLAR PARKWAY
CHANDLER, AZ 85226
Phone 480-295-2683
Manager: BOD, STELLAR RUNWAY UTILIZERS ASSN
11 NORTH STELLAR PARKWAY
CHANDLER, AZ 85226-3715
Phone 480-295-2683

Airport Operational Statistics

Aircraft based on the field: 141
Single engine airplanes: 119
Multi engine airplanes: 4
Jet airplanes: 10
Helicopters: 4
Gliders airplanes: 1
Ultralights: 3
    
Aircraft operations: avg 110/day *
80% local general aviation
20% transient general aviation
* for 12-month period ending 14 April 2021

Additional Remarks

BE ALERT TO NUMEROUS NO RADIO AIRCRAFT INVOF ARPT.
BIRDS ON OR INVOF ARPT.
PPR FOR AIRCRAFT CERTIFICATED FOR 15000 GROSS TAKEOFF WEIGHT NOT BASED AT ARPT.
FOR CD CTC PHOENIX APCH AT 602-306-2565.
TRAINING TGL PROHIBITED. HELO TRAINING PROHIBITED.
AVOID OVERFLIGHT OF NOISE SENSITIVE AREAS WEST OF RWY 17/35 AND NORTH OF ARPT.
COMMERCIAL AND STUDENT TRAINING OPERATIONS BY PERMIT ONLY.
CALM WIND RWY 17.
FLOOD IRRIGATION BETWEEN RWY AND TWY WITH STANDING WATER UP TO 1 FT DEPTH ON IRREGULAR SCHEDULE.
ALL RUNUPS ON EAST SIDE RUNUP AREAS.

Instrument Procedures

NOTE: All procedures below are presented as PDF files. If you need a reader for these files, you should download the free Adobe Reader.

NOT FOR NAVIGATION. Please procure official charts for flight.
FAA instrument procedures published for use from 16 June 2022 at 0901Z to 14 July 2022 at 0900z.

 
STARs - Standard Terminal Arrivals
ARLIN FOUR   download (316KB)
BLYTHE FIVE   download (267KB)
SUNSS EIGHT   download (263KB)
 
IAPs - Instrument Approach Procedures
VOR-A   download (200KB)
NOTE: Special Take-Off Minimums/Departure Procedures apply   download (252KB)

Other nearby airports with instrument procedures:

KCHD - Chandler Municipal Airport (6 nm E)
KPHX - Phoenix Sky Harbor International Airport (9 nm NW)
KIWA - Phoenix-Mesa Gateway Airport (13 nm E)
KFFZ - Falcon Field Airport (14 nm NE)
KSDL - Scottsdale Airport (19 nm N)
 
Loc | Ops | Rwys | IFR | FBO | Links
Com | Nav | Svcs | Stats | Notes
Area around P19 (Stellar Airpark)
 
Road maps at: MapQuest Bing Google
 
Aerial photo
WARNING: Photo may not be current or correct
Aerial photo of P19 (Stellar Airpark)
Taken in April 2006

Do you have a better or more recent aerial photo of Stellar Airpark that you would like to share? If so, please send us your photo.

 
Sectional chart

 
Airport distance calculator
Flying to Stellar Airpark? Find the distance to fly.

From to P19

Sunrise and sunset
Times for 27-Jun-2022
 Local
(UTC-7)
 Zulu
(UTC)
Morning civil twilight04:5311:53
Sunrise05:2112:21
Sunset19:4002:40
Evening civil twilight20:0903:09

Current date and time
Zulu (UTC)  28-Jun-2022 00:08:17
Local (UTC-7)  27-Jun-2022 17:08:17
 
METAR
KCHD 
5nm E 
272347Z 01008KT 10SM SCT120 BKN250 39/14 A2993
KPHX 
11nm NW 
272351Z VRB03KT 10SM FEW090 FEW120 FEW220 38/14 A2990 RMK AO2 SLP103 VIRGA CB DSNT NE T03780139 10394 20328 56023
KIWA 
13nm E 
272350Z 00000KT 10SM CLR 38/14 A2994
KFFZ 
14nm NE 
272354Z VRB03KT 10SM SCT100 37/14 A2992 RMK AO2 SLP107 T03720139 10383 20328 56021 $
KA39 
18nm S 
272350Z AUTO 25004KT 10SM 37/15 A2997 RMK AO2
KSDL 
19nm N 
272353Z VRB04KT 10SM CLR 37/13 A2994 RMK AO2 SLP109 T03720133 10389 20339 56021
TAF
KPHX 
11nm NW 
272314Z 2723/2824 20008KT P6SM FEW100 FEW220 TEMPO 2723/2803 14008KT FM280300 25006KT P6SM FEW100 FEW220 FM280700 13008KT P6SM FEW100 FM282300 20007KT P6SM FEW100 FEW250
KIWA 
13nm E 
271741Z 2718/2818 12009KT P6SM FEW150 FEW250
KSDL 
19nm N 
271741Z 2718/2818 08008KT P6SM FEW150 FEW250 FM280100 06009KT P6SM FEW100 SCT150 BKN250 FM280800 11007KT P6SM FEW150 FEW250
NOTAMs
Click for the latest NOTAMs
NOTAMs are issued by the DoD/FAA and will open in a separate window not controlled by AirNav.

 

 
 

FBO, Fuel Providers, and Aircraft Ground Support

  
 Business Name 
 
 Contact 
 
 Services / Description 
 
Fuel Prices
 
Comments
  
 Stellar Fuel
UNICOM 122.975
602-793-6383
[email]
100 LL Available Now / Jet A+ Coming Soon

More info about Stellar Fuel
EPIC
100LL
SS $6.71 
 Updated 02-Jun-2022
 
   write
SS=Self service
Update Fuel Prices
 

Would you like to see your business listed on this page?

 If your business provides an interesting product or service to pilots, flight crews, aircraft, or users of the Stellar Airpark, you should consider listing it here.  To start the listing process, click on the button below
 
Add a business
 

Other Pages about Stellar Airpark

www.stellarairpark.org
 
Update a link
 
Copyright © AirNav, LLC. All rights reserved. Privacy Policy  Contact